createdAt,value
2023-04-11T00:01:46.622Z,100442.09
2023-04-11T00:04:14.981Z,100440.19
2023-04-11T00:06:42.175Z,100430.09
2023-04-11T00:09:10.797Z,100429.44
2023-04-11T00:11:37.363Z,100431.13
2023-04-11T00:14:05.536Z,100425.06
2023-04-11T00:16:34.012Z,100418.13
2023-04-11T00:19:03.587Z,100417.66
2023-04-11T00:21:33.706Z,100422.84
2023-04-11T00:24:00.399Z,100416.78
2023-04-11T00:26:27.294Z,100422.69
2023-04-11T00:28:54.454Z,100420.06
2023-04-11T00:31:21.353Z,100417.53
2023-04-11T00:33:47.953Z,100409.69
2023-04-11T00:36:19.588Z,100404.16
2023-04-11T00:38:48.857Z,100406.72
2023-04-11T00:41:20.453Z,100398.75
2023-04-11T00:43:49.882Z,100399.31
2023-04-11T00:46:17.266Z,100395.66
2023-04-11T00:48:43.954Z,100393.06
2023-04-11T00:51:10.589Z,100389.66
2023-04-11T00:53:41.963Z,100391.41
2023-04-11T00:56:08.982Z,100397.31
2023-04-11T00:58:37.799Z,100394.72
2023-04-11T01:01:09.173Z,100394.66
2023-04-11T01:03:37.543Z,100391.22
2023-04-11T01:06:06.932Z,100387.75
2023-04-11T01:08:34.102Z,100387.72
2023-04-11T01:11:01.023Z,100383.41
2023-04-11T01:13:27.823Z,100391.06
2023-04-11T01:15:54.492Z,100381.22
2023-04-11T01:18:21.144Z,100379.09
2023-04-11T01:20:47.737Z,100381.00
2023-04-11T01:23:14.316Z,100376.50
2023-04-11T01:25:41.265Z,100373.94
2023-04-11T01:28:08.845Z,100372.56
2023-04-11T01:30:35.667Z,100368.22
2023-04-11T01:33:02.366Z,100366.50
2023-04-11T01:35:28.988Z,100363.84
2023-04-11T01:37:55.745Z,100355.50
2023-04-11T01:40:23.831Z,100358.34
2023-04-11T01:42:51.546Z,100360.00
2023-04-11T01:45:21.010Z,100360.13
2023-04-11T01:47:49.599Z,100359.16
2023-04-11T01:50:19.492Z,100354.13
2023-04-11T01:52:46.268Z,100338.63
2023-04-11T01:55:15.517Z,100341.81
2023-04-11T01:57:44.582Z,100357.78
2023-04-11T02:00:11.841Z,100344.94
2023-04-11T02:02:46.375Z,100344.94
2023-04-11T02:05:17.786Z,100349.31
2023-04-11T02:07:45.156Z,100349.47
2023-04-11T02:10:17.235Z,100344.56
2023-04-11T02:12:43.978Z,100346.97
2023-04-11T02:15:10.916Z,100339.91
2023-04-11T02:17:37.550Z,100345.09
2023-04-11T02:20:07.091Z,100337.38
2023-04-11T02:22:36.598Z,100329.03
2023-04-11T02:25:03.216Z,100323.13
2023-04-11T02:27:32.838Z,100320.72
2023-04-11T02:30:00.910Z,100329.19
2023-04-11T02:32:30.462Z,100321.44
2023-04-11T02:34:57.184Z,100326.47
2023-04-11T02:37:26.130Z,100322.44
2023-04-11T02:39:52.793Z,100320.81
2023-04-11T02:42:21.855Z,100320.88
2023-04-11T02:44:48.557Z,100318.09
2023-04-11T02:47:18.937Z,100316.03
2023-04-11T02:49:45.688Z,100316.69
2023-04-11T02:52:18.275Z,100318.28
2023-04-11T02:54:46.135Z,100316.63
2023-04-11T02:57:15.324Z,100313.91
2023-04-11T02:59:45.126Z,100319.63
2023-04-11T03:02:14.937Z,100327.94
2023-04-11T03:04:41.998Z,100325.34
2023-04-11T03:07:15.229Z,100318.44
2023-04-11T03:09:42.067Z,100321.34
2023-04-11T03:12:09.028Z,100315.34
2023-04-11T03:14:43.627Z,100317.88
2023-04-11T03:17:10.177Z,100318.84
2023-04-11T03:19:36.952Z,100316.34
2023-04-11T03:22:07.813Z,100308.59
2023-04-11T03:24:34.472Z,100311.25
2023-04-11T03:27:01.869Z,100315.81
2023-04-11T03:29:32.731Z,100312.53
2023-04-11T03:32:11.828Z,100303.34
2023-04-11T03:34:38.878Z,100307.94
2023-04-11T03:37:10.447Z,100301.88
2023-04-11T03:39:41.076Z,100296.00
2023-04-11T03:42:07.759Z,100295.84
2023-04-11T03:44:37.292Z,100293.00
2023-04-11T03:47:03.951Z,100295.44
2023-04-11T03:49:37.148Z,100303.13
2023-04-11T03:52:05.127Z,100301.69
2023-04-11T03:54:31.967Z,100309.63
2023-04-11T03:56:59.543Z,100304.72
2023-04-11T03:59:26.872Z,100306.44
2023-04-11T04:01:58.928Z,100309.91
2023-04-11T04:04:26.368Z,100311.97
2023-04-11T04:07:06.872Z,100302.94
2023-04-11T04:09:38.309Z,100309.69
2023-04-11T04:12:07.707Z,100309.56
2023-04-11T04:15:01.389Z,100311.09
2023-04-11T04:17:30.863Z,100306.22
2023-04-11T04:19:58.858Z,100304.97
2023-04-11T04:22:26.634Z,100304.22
2023-04-11T04:24:58.288Z,100299.09
2023-04-11T04:27:30.316Z,100302.59
2023-04-11T04:30:04.297Z,100294.50
2023-04-11T04:32:55.007Z,100303.25
2023-04-11T04:35:23.893Z,100308.75
2023-04-11T04:37:51.053Z,100305.91
2023-04-11T04:40:31.601Z,100316.34
2023-04-11T04:43:09.158Z,100313.22
2023-04-11T04:45:42.265Z,100310.88
2023-04-11T04:48:12.762Z,100305.72
2023-04-11T04:50:39.708Z,100305.22
2023-04-11T04:53:08.994Z,100304.47
2023-04-11T04:55:39.176Z,100307.88
2023-04-11T04:58:06.907Z,100308.94
2023-04-11T05:00:33.806Z,100301.44
2023-04-11T05:03:05.775Z,100297.91
2023-04-11T05:05:32.720Z,100296.16
2023-04-11T05:08:01.141Z,100300.03
2023-04-11T05:10:36.771Z,100294.56
2023-04-11T05:13:05.562Z,100294.13
2023-04-11T05:15:33.207Z,100285.59
2023-04-11T05:18:02.418Z,100286.91
2023-04-11T05:20:33.745Z,100286.75
2023-04-11T05:23:00.913Z,100279.88
2023-04-11T05:25:33.003Z,100276.97
2023-04-11T05:28:03.189Z,100274.59
2023-04-11T05:30:29.966Z,100277.50
2023-04-11T05:32:56.618Z,100277.84
2023-04-11T05:35:23.729Z,100273.16
2023-04-11T05:37:53.180Z,100275.38
2023-04-11T05:40:22.560Z,100267.47
2023-04-11T05:42:49.191Z,100263.66
2023-04-11T05:45:15.893Z,100266.47
2023-04-11T05:47:45.277Z,100273.41
2023-04-11T05:50:14.009Z,100258.44
2023-04-11T05:52:44.288Z,100255.53
2023-04-11T05:55:14.088Z,100249.16
2023-04-11T05:57:43.055Z,100245.19
2023-04-11T06:00:13.245Z,100248.53
2023-04-11T06:02:42.059Z,100249.75
2023-04-11T06:05:12.441Z,100242.13
2023-04-11T06:07:39.645Z,100245.81
2023-04-11T06:10:06.778Z,100237.78
2023-04-11T06:12:33.357Z,100236.66
2023-04-11T06:15:00.063Z,100235.28
2023-04-11T06:17:26.910Z,100232.59
2023-04-11T06:19:58.284Z,100239.88
2023-04-11T06:22:24.911Z,100231.44
2023-04-11T06:24:54.359Z,100232.38
2023-04-11T06:27:21.010Z,100234.28
2023-04-11T06:29:47.620Z,100230.09
2023-04-11T06:32:16.846Z,100224.97
2023-04-11T06:34:46.083Z,100223.19
2023-04-11T06:37:12.834Z,100220.06
2023-04-11T06:39:41.866Z,100224.91
2023-04-11T06:42:08.736Z,100221.91
2023-04-11T06:44:35.460Z,100221.16
2023-04-11T06:47:04.466Z,100230.84
2023-04-11T06:49:33.664Z,100228.06
2023-04-11T06:52:00.363Z,100225.25
2023-04-11T06:54:27.151Z,100220.72
2023-04-11T06:56:53.996Z,100217.25
2023-04-11T06:59:21.518Z,100209.69
2023-04-11T07:01:48.834Z,100216.13
2023-04-11T07:04:18.961Z,100210.50
2023-04-11T07:06:46.464Z,100209.00
2023-04-11T07:09:13.144Z,100208.56
2023-04-11T07:11:39.824Z,100211.72
2023-04-11T07:14:06.517Z,100197.34
2023-04-11T07:16:35.413Z,100189.19
2023-04-11T07:19:04.501Z,100185.53
2023-04-11T07:21:33.708Z,100173.34
2023-04-11T07:24:03.060Z,100175.75
2023-04-11T07:26:32.841Z,100179.75
2023-04-11T07:29:02.285Z,100182.88
2023-04-11T07:31:31.945Z,100178.78
2023-04-11T07:34:01.362Z,100173.66
2023-04-11T07:36:28.378Z,100176.41
2023-04-11T07:39:07.649Z,100174.03
2023-04-11T07:41:43.114Z,100177.16
2023-04-11T07:44:12.108Z,100180.31
2023-04-11T07:46:41.556Z,100181.91
2023-04-11T07:49:10.826Z,100176.69
2023-04-11T07:51:37.567Z,100173.28
2023-04-11T07:54:04.653Z,100169.97
2023-04-11T07:56:31.281Z,100168.44
2023-04-11T07:58:58.716Z,100160.50
2023-04-11T08:01:25.926Z,100162.97
2023-04-11T08:03:56.319Z,100141.22
2023-04-11T08:06:26.664Z,100151.41
2023-04-11T08:08:56.609Z,100150.75
2023-04-11T08:11:23.363Z,100151.25
2023-04-11T08:13:50.826Z,100158.59
2023-04-11T08:16:17.724Z,100143.97
2023-04-11T08:18:45.694Z,100141.13
2023-04-11T08:21:12.595Z,100138.69
2023-04-11T08:23:42.734Z,100135.50
2023-04-11T08:26:09.957Z,100132.13
2023-04-11T08:28:40.015Z,100123.19
2023-04-11T08:31:12.729Z,100118.13
2023-04-11T08:33:42.330Z,100119.88
2023-04-11T08:36:10.331Z,100107.75
2023-04-11T08:38:40.067Z,100101.84
2023-04-11T08:41:06.893Z,100100.03
2023-04-11T08:43:34.029Z,100095.50
2023-04-11T08:46:06.192Z,100070.31
2023-04-11T08:48:35.640Z,100077.16
2023-04-11T08:51:02.485Z,100078.31
2023-04-11T08:53:29.310Z,100075.75
2023-04-11T08:56:00.019Z,100079.75
2023-04-11T08:58:29.011Z,100065.66
2023-04-11T09:00:56.060Z,100056.31
2023-04-11T09:03:22.894Z,100054.69
2023-04-11T09:05:52.458Z,100057.22
2023-04-11T09:08:21.474Z,100062.53
2023-04-11T09:10:48.233Z,100062.69
2023-04-11T09:13:29.014Z,100067.25
2023-04-11T09:16:09.513Z,100055.78
2023-04-11T09:18:36.579Z,100055.75
2023-04-11T09:21:04.438Z,100046.09
2023-04-11T09:23:33.936Z,100042.63
2023-04-11T09:26:01.384Z,100043.47
2023-04-11T09:28:39.096Z,100040.88
2023-04-11T09:31:05.990Z,100030.41
2023-04-11T09:33:37.416Z,100025.38
2023-04-11T09:36:17.828Z,100024.22
2023-04-11T09:38:47.326Z,100018.88
2023-04-11T09:41:16.637Z,100022.34
2023-04-11T09:43:53.135Z,100024.69
2023-04-11T09:46:22.253Z,100027.22
2023-04-11T09:48:49.101Z,100019.44
2023-04-11T09:51:31.937Z,100008.56
2023-04-11T09:54:04.211Z,100010.53
2023-04-11T09:56:34.539Z,100012.13
2023-04-11T10:21:38.017Z,99976.75
2023-04-11T10:24:17.010Z,99961.19
2023-04-11T10:30:46.490Z,99948.94
2023-04-11T10:33:17.664Z,99937.47
2023-04-11T10:36:03.895Z,99934.72
2023-04-11T10:38:37.040Z,99923.13
2023-04-11T10:41:27.668Z,99917.03
2023-04-11T10:44:13.688Z,99921.50
2023-04-11T10:46:47.818Z,99910.91
2023-04-11T10:49:36.791Z,99912.78
2023-04-11T10:52:22.941Z,99909.38
2023-04-11T10:54:50.743Z,99918.13
2023-04-11T10:57:17.893Z,99907.66
2023-04-11T10:59:44.629Z,99895.31
2023-04-11T11:02:13.873Z,99895.06
2023-04-11T11:04:41.238Z,99878.88
2023-04-11T11:07:08.453Z,99882.38
2023-04-11T11:09:35.660Z,99889.53
2023-04-11T11:12:12.856Z,99892.25
2023-04-11T11:14:40.390Z,99879.59
2023-04-11T11:17:07.364Z,99871.09
2023-04-11T11:19:34.755Z,99861.44
2023-04-11T11:22:05.130Z,99870.81
2023-04-11T11:24:31.973Z,99853.09
2023-04-11T11:27:03.703Z,99859.06
2023-04-11T11:29:32.200Z,99842.50
2023-04-11T11:32:03.906Z,99840.50
2023-04-11T11:34:34.459Z,99842.59
2023-04-11T11:37:01.874Z,99851.84
2023-04-11T11:39:28.570Z,99841.66
2023-04-11T11:41:57.870Z,99837.56
2023-04-11T11:44:25.415Z,99851.34
2023-04-11T11:47:01.565Z,99837.81
2023-04-11T11:49:31.265Z,99834.81
2023-04-11T11:52:02.850Z,99838.25
2023-04-11T11:54:29.540Z,99834.88
2023-04-11T11:56:58.600Z,99835.88
2023-04-11T11:59:28.230Z,99820.44
2023-04-11T12:01:54.895Z,99829.63
2023-04-11T12:04:24.261Z,99831.78
2023-04-11T12:06:50.996Z,99828.31
2023-04-11T12:09:17.684Z,99831.44
2023-04-11T12:11:47.034Z,99825.44
2023-04-11T12:14:22.096Z,99827.09
2023-04-11T12:16:48.728Z,99826.47
2023-04-11T12:19:15.590Z,99830.75
2023-04-11T12:21:42.518Z,99827.06
2023-04-11T12:24:11.939Z,99827.72
2023-04-11T12:26:45.594Z,99836.25
2023-04-11T12:29:21.932Z,99826.44
2023-04-11T12:31:48.766Z,99824.22
2023-04-11T12:34:15.680Z,99821.41
2023-04-11T12:36:44.903Z,99812.31
2023-04-11T12:39:11.730Z,99815.13
2023-04-11T12:41:38.482Z,99795.03
2023-04-11T12:44:07.530Z,99798.56
2023-04-11T12:46:34.411Z,99800.53
2023-04-11T12:49:03.279Z,99795.28
2023-04-11T12:51:34.478Z,99804.28
2023-04-11T12:54:04.072Z,99797.16
2023-04-11T12:56:30.799Z,99797.22
2023-04-11T12:58:57.599Z,99785.44
2023-04-11T13:01:24.640Z,99791.84
2023-04-11T13:03:52.192Z,99776.31
2023-04-11T13:06:19.668Z,99789.66
2023-04-11T13:08:49.470Z,99777.56
2023-04-11T13:11:18.588Z,99773.72
2023-04-11T13:13:45.492Z,99761.31
2023-04-11T13:16:12.462Z,99764.50
2023-04-11T13:18:39.253Z,99754.91
2023-04-11T13:21:06.055Z,99757.09
2023-04-11T13:23:35.226Z,99755.34
2023-04-11T13:26:02.314Z,99754.97
2023-04-11T13:28:29.349Z,99758.88
2023-04-11T13:30:56.427Z,99751.09
2023-04-11T13:33:31.289Z,99742.41
2023-04-11T13:36:03.246Z,99741.34
2023-04-11T13:38:29.961Z,99735.66
2023-04-11T13:40:56.726Z,99727.78
2023-04-11T13:43:25.776Z,99734.81
2023-04-11T13:45:55.278Z,99730.69
2023-04-11T13:48:27.302Z,99743.25
2023-04-11T13:50:57.542Z,99732.88
2023-04-11T13:53:24.491Z,99730.25
2023-04-11T13:55:54.142Z,99730.09
2023-04-11T13:58:23.625Z,99728.09
2023-04-11T14:00:52.842Z,99727.13
2023-04-11T14:03:19.706Z,99729.94
2023-04-11T14:05:49.030Z,99732.81
2023-04-11T14:08:17.005Z,99726.03
2023-04-11T14:10:48.787Z,99724.28
2023-04-11T14:13:17.875Z,99724.34
2023-04-11T14:15:49.631Z,99738.41
2023-04-11T14:18:18.765Z,99743.66
2023-04-11T14:20:45.402Z,99733.13
2023-04-11T14:23:13.857Z,99730.44
2023-04-11T14:25:45.732Z,99737.44
2023-04-11T14:28:13.575Z,99739.16
2023-04-11T14:30:42.657Z,99746.94
2023-04-11T14:33:09.408Z,99762.84
2023-04-11T14:35:36.205Z,99763.78
2023-04-11T14:38:07.766Z,99755.94
2023-04-11T14:40:34.429Z,99767.28
2023-04-11T14:43:04.297Z,99776.78
2023-04-11T14:45:33.328Z,99770.56
2023-04-11T14:48:04.959Z,99774.84
2023-04-11T14:50:32.321Z,99774.88
2023-04-11T14:52:59.037Z,99771.47
2023-04-11T14:55:25.780Z,99763.63
2023-04-11T14:57:55.664Z,99768.88
2023-04-11T15:00:25.146Z,99767.06
2023-04-11T15:02:53.595Z,99784.38
2023-04-11T15:05:23.398Z,99772.81
2023-04-11T15:07:53.094Z,99792.75
2023-04-11T15:10:23.706Z,99788.19
2023-04-11T15:12:50.560Z,99788.97
2023-04-11T15:15:19.553Z,99793.34
2023-04-11T15:17:49.256Z,99791.53
2023-04-11T15:20:16.759Z,99802.72
2023-04-11T15:22:46.849Z,99798.25
2023-04-11T15:25:14.725Z,99805.56
2023-04-11T15:27:41.936Z,99802.44
2023-04-11T15:30:09.030Z,99828.81
2023-04-11T15:32:41.757Z,99807.84
2023-04-11T15:35:10.820Z,99825.56
2023-04-11T15:37:39.694Z,99810.16
2023-04-11T15:40:06.982Z,99829.59
2023-04-11T15:42:37.590Z,99836.94
2023-04-11T15:45:04.839Z,99837.66
2023-04-11T15:47:31.583Z,99835.78
2023-04-11T15:50:02.429Z,99839.91
2023-04-11T15:52:35.739Z,99842.22
2023-04-11T15:55:09.671Z,99848.13
2023-04-11T15:57:45.905Z,99847.97
2023-04-11T16:00:34.860Z,99846.25
2023-04-11T16:03:04.943Z,99846.25
2023-04-11T16:05:32.762Z,99842.44
2023-04-11T16:07:59.735Z,99850.34
2023-04-11T16:10:26.917Z,99849.59
2023-04-11T16:12:53.816Z,99839.63
2023-04-11T16:15:20.776Z,99838.34
2023-04-11T16:17:47.719Z,99835.91
2023-04-11T16:20:18.976Z,99831.72
2023-04-11T16:22:46.707Z,99824.44
2023-04-11T16:25:16.386Z,99827.34
2023-04-11T16:27:43.845Z,99822.84
2023-04-11T16:30:11.109Z,99824.69
2023-04-11T16:32:40.149Z,99814.22
2023-04-11T16:35:07.320Z,99817.19
2023-04-11T16:37:39.000Z,99818.38
2023-04-11T16:40:11.777Z,99822.19
2023-04-11T16:42:39.141Z,99817.19
2023-04-11T16:45:06.980Z,99811.28
2023-04-11T16:47:36.541Z,99806.97
2023-04-11T16:50:08.494Z,99807.00
2023-04-11T16:52:35.100Z,99808.72
2023-04-11T16:55:03.265Z,99802.25
2023-04-11T16:57:35.559Z,99812.25
2023-04-11T17:00:10.803Z,99799.59
2023-04-11T17:02:37.736Z,99789.31
2023-04-11T17:05:06.980Z,99796.34
2023-04-11T17:07:36.777Z,99793.75
2023-04-11T17:10:07.076Z,99794.63
2023-04-11T17:12:39.636Z,99803.22
2023-04-11T17:15:08.571Z,99801.38
2023-04-11T17:17:37.621Z,99798.69
2023-04-11T17:20:09.539Z,99802.97
2023-04-11T17:22:41.452Z,99800.41
2023-04-11T17:25:11.469Z,99802.06
2023-04-11T17:27:38.127Z,99793.44
2023-04-11T17:30:12.497Z,99790.03
2023-04-11T17:32:39.291Z,99794.44
2023-04-11T17:35:06.786Z,99787.41
2023-04-11T17:37:34.066Z,99791.63
2023-04-11T17:40:13.556Z,99795.16
2023-04-11T17:42:46.030Z,99799.50
2023-04-11T17:45:18.792Z,99793.38
2023-04-11T17:47:48.995Z,99796.88
2023-04-11T17:50:15.812Z,99786.25
2023-04-11T17:52:50.129Z,99793.03
2023-04-11T17:55:24.300Z,99788.75
2023-04-11T17:57:51.689Z,99800.88
2023-04-11T18:00:23.394Z,99785.81
2023-04-11T18:02:52.449Z,99800.94
2023-04-11T18:05:23.591Z,99793.28
2023-04-11T18:07:52.348Z,99786.78
2023-04-11T18:10:22.150Z,99800.31
2023-04-11T18:12:49.865Z,99803.88
2023-04-11T18:15:16.866Z,99794.78
2023-04-11T18:17:46.556Z,99794.97
2023-04-11T18:20:14.220Z,99806.28
2023-04-11T18:22:49.332Z,99807.09
2023-04-11T18:25:16.477Z,99810.50
2023-04-11T18:27:45.720Z,99813.91
2023-04-11T18:30:13.037Z,99819.91
2023-04-11T18:32:45.197Z,99829.25
2023-04-11T18:35:16.260Z,99824.88
2023-04-11T18:37:44.091Z,99829.16
2023-04-11T18:40:14.426Z,99831.63
2023-04-11T18:42:47.765Z,99843.81
2023-04-11T18:45:23.078Z,99828.75
2023-04-11T18:47:50.881Z,99821.91
2023-04-11T18:50:18.780Z,99818.63
2023-04-11T18:52:54.971Z,99822.94
2023-04-11T18:55:25.521Z,99821.91
2023-04-11T18:57:56.620Z,99826.63
2023-04-11T19:00:26.186Z,99821.00
2023-04-11T19:02:53.593Z,99815.56
2023-04-11T19:05:21.306Z,99816.41
2023-04-11T19:07:48.335Z,99815.38
2023-04-11T19:10:15.737Z,99822.22
2023-04-11T19:12:42.893Z,99835.03
2023-04-11T19:15:11.955Z,99831.50
2023-04-11T19:17:39.187Z,99836.25
2023-04-11T19:20:29.259Z,99834.59
2023-04-11T19:22:56.376Z,99811.53
2023-04-11T19:25:23.266Z,99811.69
2023-04-11T19:27:51.255Z,99817.91
2023-04-11T19:30:18.086Z,99815.22
2023-04-11T19:32:48.804Z,99810.81
2023-04-11T19:35:15.482Z,99820.44
2023-04-11T19:37:42.932Z,99812.25
2023-04-11T19:40:15.737Z,99810.09
2023-04-11T19:42:43.260Z,99825.66
2023-04-11T19:45:10.739Z,99837.81
2023-04-11T19:47:43.719Z,99827.03
2023-04-11T19:50:22.509Z,99828.69
2023-04-11T19:52:49.239Z,99826.09
2023-04-11T19:55:16.077Z,99814.94
2023-04-11T20:00:37.754Z,99819.56
2023-04-11T20:03:08.071Z,99831.53
2023-04-11T20:05:37.047Z,99829.66
2023-04-11T20:08:03.798Z,99824.47
2023-04-11T20:10:30.782Z,99815.97
2023-04-11T20:12:57.625Z,99819.59
2023-04-11T20:15:36.910Z,99808.56
2023-04-11T20:18:06.545Z,99810.31
2023-04-11T20:20:33.959Z,99814.56
2023-04-11T20:23:04.998Z,99810.22
2023-04-11T20:25:35.082Z,99819.00
2023-04-11T20:28:02.167Z,99814.84
2023-04-11T20:30:30.065Z,99821.25
2023-04-11T20:32:56.829Z,99833.72
2023-04-11T20:35:23.848Z,99829.31
2023-04-11T20:37:51.163Z,99829.75
2023-04-11T20:40:25.159Z,99819.94
2023-04-11T20:42:51.973Z,99816.44
2023-04-11T20:45:21.950Z,99816.81
2023-04-11T20:47:52.895Z,99799.66
2023-04-11T20:50:22.995Z,99784.56
2023-04-11T20:52:54.317Z,99768.13
2023-04-11T20:55:21.226Z,99765.69
2023-04-11T20:57:48.046Z,99757.22
2023-04-11T21:00:17.672Z,99741.78
2023-04-11T21:02:45.951Z,99743.72
2023-04-11T21:05:15.287Z,99769.03
2023-04-11T21:07:42.332Z,99749.41
2023-04-11T21:10:09.548Z,99762.38
2023-04-11T21:12:36.500Z,99758.97
2023-04-11T21:15:04.044Z,99767.47
2023-04-11T21:17:39.610Z,99757.22
2023-04-11T21:20:11.335Z,99770.16
2023-04-11T21:22:40.301Z,99771.59
2023-04-11T21:25:10.206Z,99764.59
2023-04-11T21:27:40.963Z,99767.97
2023-04-11T21:30:12.891Z,99768.16
2023-04-11T21:32:44.402Z,99761.75
2023-04-11T21:35:11.758Z,99758.06
2023-04-11T21:37:40.810Z,99769.03
2023-04-11T21:40:07.888Z,99770.31
2023-04-11T21:42:34.749Z,99765.81
2023-04-11T21:45:01.436Z,99767.97
2023-04-11T21:47:31.641Z,99768.97
2023-04-11T21:49:58.531Z,99776.72
2023-04-11T21:52:30.218Z,99776.38
2023-04-11T21:55:07.238Z,99790.16
2023-04-11T21:57:35.403Z,99789.19
2023-04-11T22:00:04.903Z,99790.56
2023-04-11T22:02:38.875Z,99795.84
2023-04-11T22:05:07.488Z,99786.34
2023-04-11T22:07:48.480Z,99796.13
2023-04-11T22:10:22.579Z,99790.66
2023-04-11T22:12:57.927Z,99788.72
2023-04-11T22:15:27.515Z,99788.97
2023-04-11T22:17:56.824Z,99780.91
2023-04-11T22:20:28.737Z,99772.06
2023-04-11T22:22:58.716Z,99788.13
2023-04-11T22:25:25.957Z,99780.81
2023-04-11T22:27:56.406Z,99775.53
2023-04-11T22:30:24.483Z,99786.13
2023-04-11T22:32:55.650Z,99769.66
2023-04-11T22:35:26.156Z,99723.56
2023-04-11T22:37:55.391Z,99763.88
2023-04-11T22:40:27.442Z,99769.44
2023-04-11T22:42:56.554Z,99765.06
2023-04-11T22:45:23.759Z,99764.75
2023-04-11T22:47:56.839Z,99753.88
2023-04-11T22:50:23.643Z,99747.47
2023-04-11T22:52:54.741Z,99748.63
2023-04-11T22:55:26.366Z,99750.59
2023-04-11T22:57:53.231Z,99735.44
2023-04-11T23:00:22.002Z,99734.63
2023-04-11T23:02:48.690Z,99732.03
2023-04-11T23:05:17.996Z,99734.38
2023-04-11T23:07:44.676Z,99714.78
2023-04-11T23:10:14.293Z,99719.50
2023-04-11T23:12:41.601Z,99712.19
2023-04-11T23:15:13.832Z,99723.22
2023-04-11T23:17:41.438Z,99729.88
2023-04-11T23:20:12.486Z,99724.53
2023-04-11T23:22:42.459Z,99727.16
2023-04-11T23:25:12.106Z,99726.06
2023-04-11T23:27:38.832Z,99730.19
2023-04-11T23:30:11.860Z,99742.13
2023-04-11T23:32:39.079Z,99716.19
2023-04-11T23:35:08.335Z,99704.13
2023-04-11T23:37:37.198Z,99720.41
2023-04-11T23:40:11.117Z,99715.25
2023-04-11T23:42:40.273Z,99715.91
2023-04-11T23:45:07.507Z,99722.56
2023-04-11T23:47:40.698Z,99704.75
2023-04-11T23:50:09.724Z,99713.38
2023-04-11T23:52:36.377Z,99696.09
2023-04-11T23:55:06.256Z,99706.22
